sensor_id;sensor_type;location;lat;lon;timestamp;temperature;humidity
4960;DHT22;2495;48.200;11.532;2023-01-09T00:02:48;8.90;77.30
4960;DHT22;2495;48.200;11.532;2023-01-09T00:07:49;8.90;76.30
4960;DHT22;2495;48.200;11.532;2023-01-09T00:12:50;9.00;77.30
4960;DHT22;2495;48.200;11.532;2023-01-09T00:17:52;8.90;76.40
4960;DHT22;2495;48.200;11.532;2023-01-09T00:22:53;8.70;76.10
4960;DHT22;2495;48.200;11.532;2023-01-09T00:27:54;8.60;76.40
4960;DHT22;2495;48.200;11.532;2023-01-09T00:32:56;8.50;76.60
4960;DHT22;2495;48.200;11.532;2023-01-09T00:37:57;8.40;76.50
4960;DHT22;2495;48.200;11.532;2023-01-09T00:42:58;8.40;76.50
4960;DHT22;2495;48.200;11.532;2023-01-09T00:48:01;8.40;76.60
4960;DHT22;2495;48.200;11.532;2023-01-09T00:53:06;8.30;76.70
4960;DHT22;2495;48.200;11.532;2023-01-09T00:58:06;8.50;78.00
4960;DHT22;2495;48.200;11.532;2023-01-09T01:03:07;8.60;76.70
4960;DHT22;2495;48.200;11.532;2023-01-09T01:08:12;8.60;76.30
4960;DHT22;2495;48.200;11.532;2023-01-09T01:13:14;8.60;76.60
4960;DHT22;2495;48.200;11.532;2023-01-09T01:18:15;8.50;76.30
4960;DHT22;2495;48.200;11.532;2023-01-09T01:23:17;8.40;76.50
4960;DHT22;2495;48.200;11.532;2023-01-09T01:28:18;8.40;76.60
4960;DHT22;2495;48.200;11.532;2023-01-09T01:33:20;8.40;76.40
4960;DHT22;2495;48.200;11.532;2023-01-09T01:38:21;8.50;76.40
4960;DHT22;2495;48.200;11.532;2023-01-09T01:43:22;8.40;76.80
4960;DHT22;2495;48.200;11.532;2023-01-09T01:48:25;8.40;76.80
4960;DHT22;2495;48.200;11.532;2023-01-09T01:53:26;8.40;76.80
4960;DHT22;2495;48.200;11.532;2023-01-09T01:58:26;8.40;77.00
4960;DHT22;2495;48.200;11.532;2023-01-09T02:03:28;8.30;77.10
4960;DHT22;2495;48.200;11.532;2023-01-09T02:08:29;8.30;77.30
4960;DHT22;2495;48.200;11.532;2023-01-09T02:13:31;8.30;77.90
4960;DHT22;2495;48.200;11.532;2023-01-09T02:18:57;8.30;78.00
4960;DHT22;2495;48.200;11.532;2023-01-09T02:41:17;8.60;78.80
4960;DHT22;2495;48.200;11.532;2023-01-09T02:46:18;8.50;78.70
4960;DHT22;2495;48.200;11.532;2023-01-09T02:51:35;8.50;78.50
4960;DHT22;2495;48.200;11.532;2023-01-09T03:07:52;8.50;78.60
4960;DHT22;2495;48.200;11.532;2023-01-09T03:12:50;8.50;78.80
4960;DHT22;2495;48.200;11.532;2023-01-09T03:17:51;8.40;78.40
4960;DHT22;2495;48.200;11.532;2023-01-09T03:27:55;8.50;78.60
4960;DHT22;2495;48.200;11.532;2023-01-09T03:32:56;8.50;78.20
4960;DHT22;2495;48.200;11.532;2023-01-09T03:37:57;8.50;78.90
4960;DHT22;2495;48.200;11.532;2023-01-09T03:42:58;8.50;78.90
4960;DHT22;2495;48.200;11.532;2023-01-09T03:47:59;8.50;79.50
4960;DHT22;2495;48.200;11.532;2023-01-09T03:53:01;8.80;80.30
4960;DHT22;2495;48.200;11.532;2023-01-09T03:58:02;8.90;79.50
4960;DHT22;2495;48.200;11.532;2023-01-09T04:03:03;8.80;80.00
4960;DHT22;2495;48.200;11.532;2023-01-09T04:08:05;9.00;80.40
4960;DHT22;2495;48.200;11.532;2023-01-09T04:13:06;9.00;80.20
4960;DHT22;2495;48.200;11.532;2023-01-09T04:18:08;9.00;79.30
4960;DHT22;2495;48.200;11.532;2023-01-09T04:23:09;8.90;79.20
4960;DHT22;2495;48.200;11.532;2023-01-09T04:28:10;8.90;79.30
4960;DHT22;2495;48.200;11.532;2023-01-09T04:33:12;8.80;79.50
4960;DHT22;2495;48.200;11.532;2023-01-09T04:38:13;8.80;79.40
4960;DHT22;2495;48.200;11.532;2023-01-09T04:43:15;8.80;80.90
4960;DHT22;2495;48.200;11.532;2023-01-09T04:48:17;8.80;79.90
4960;DHT22;2495;48.200;11.532;2023-01-09T04:53:18;8.80;81.10
4960;DHT22;2495;48.200;11.532;2023-01-09T04:58:20;9.00;82.10
4960;DHT22;2495;48.200;11.532;2023-01-09T05:03:21;9.00;81.90
4960;DHT22;2495;48.200;11.532;2023-01-09T05:08:22;9.00;81.80
4960;DHT22;2495;48.200;11.532;2023-01-09T05:13:23;9.10;82.10
4960;DHT22;2495;48.200;11.532;2023-01-09T05:18:25;9.20;82.10
4960;DHT22;2495;48.200;11.532;2023-01-09T05:23:26;9.20;82.30
4960;DHT22;2495;48.200;11.532;2023-01-09T05:28:27;9.50;82.40
4960;DHT22;2495;48.200;11.532;2023-01-09T05:33:28;9.50;81.00
4960;DHT22;2495;48.200;11.532;2023-01-09T05:38:30;9.80;80.80
4960;DHT22;2495;48.200;11.532;2023-01-09T05:43:31;9.80;80.30
4960;DHT22;2495;48.200;11.532;2023-01-09T05:48:32;9.70;80.20
4960;DHT22;2495;48.200;11.532;2023-01-09T05:53:33;9.60;79.90
4960;DHT22;2495;48.200;11.532;2023-01-09T05:58:35;9.50;79.80
4960;DHT22;2495;48.200;11.532;2023-01-09T06:03:36;9.40;79.70
4960;DHT22;2495;48.200;11.532;2023-01-09T06:08:38;9.30;78.80
4960;DHT22;2495;48.200;11.532;2023-01-09T06:13:39;9.30;78.60
4960;DHT22;2495;48.200;11.532;2023-01-09T06:18:40;9.30;78.40
4960;DHT22;2495;48.200;11.532;2023-01-09T06:23:42;9.30;76.90
4960;DHT22;2495;48.200;11.532;2023-01-09T06:28:43;9.20;76.10
4960;DHT22;2495;48.200;11.532;2023-01-09T06:33:44;9.20;75.50
4960;DHT22;2495;48.200;11.532;2023-01-09T06:38:45;9.10;74.50
4960;DHT22;2495;48.200;11.532;2023-01-09T06:43:47;9.30;74.10
4960;DHT22;2495;48.200;11.532;2023-01-09T06:48:48;9.30;74.00
4960;DHT22;2495;48.200;11.532;2023-01-09T06:53:50;9.20;74.50
4960;DHT22;2495;48.200;11.532;2023-01-09T06:58:51;9.00;74.90
4960;DHT22;2495;48.200;11.532;2023-01-09T07:03:53;8.80;75.90
4960;DHT22;2495;48.200;11.532;2023-01-09T07:08:54;8.80;75.60
4960;DHT22;2495;48.200;11.532;2023-01-09T07:13:55;8.70;76.00
4960;DHT22;2495;48.200;11.532;2023-01-09T07:18:56;8.90;76.00
4960;DHT22;2495;48.200;11.532;2023-01-09T07:23:58;8.80;76.10
4960;DHT22;2495;48.200;11.532;2023-01-09T07:28:59;8.70;75.70
4960;DHT22;2495;48.200;11.532;2023-01-09T07:34:00;8.60;75.80
4960;DHT22;2495;48.200;11.532;2023-01-09T07:39:01;8.70;75.80
4960;DHT22;2495;48.200;11.532;2023-01-09T07:44:03;8.70;76.70
4960;DHT22;2495;48.200;11.532;2023-01-09T07:49:04;8.70;77.40
4960;DHT22;2495;48.200;11.532;2023-01-09T07:54:05;8.60;77.50
4960;DHT22;2495;48.200;11.532;2023-01-09T07:59:06;8.60;78.20
4960;DHT22;2495;48.200;11.532;2023-01-09T08:04:08;8.60;78.10
4960;DHT22;2495;48.200;11.532;2023-01-09T08:09:09;8.50;77.90
4960;DHT22;2495;48.200;11.532;2023-01-09T08:14:11;8.40;78.20
4960;DHT22;2495;48.200;11.532;2023-01-09T08:19:12;8.40;78.70
4960;DHT22;2495;48.200;11.532;2023-01-09T08:24:13;8.40;78.90
4960;DHT22;2495;48.200;11.532;2023-01-09T08:29:15;8.40;79.00
4960;DHT22;2495;48.200;11.532;2023-01-09T08:34:16;8.30;79.60
4960;DHT22;2495;48.200;11.532;2023-01-09T08:39:17;8.40;80.00
4960;DHT22;2495;48.200;11.532;2023-01-09T08:44:19;8.40;80.20
4960;DHT22;2495;48.200;11.532;2023-01-09T08:49:38;8.50;80.20
4960;DHT22;2495;48.200;11.532;2023-01-09T08:54:40;8.60;79.90
4960;DHT22;2495;48.200;11.532;2023-01-09T08:59:41;8.70;79.70
4960;DHT22;2495;48.200;11.532;2023-01-09T09:04:42;8.60;79.10
4960;DHT22;2495;48.200;11.532;2023-01-09T09:09:43;8.50;78.20
4960;DHT22;2495;48.200;11.532;2023-01-09T09:14:44;8.60;75.70
4960;DHT22;2495;48.200;11.532;2023-01-09T09:20:05;9.00;71.90
4960;DHT22;2495;48.200;11.532;2023-01-09T09:25:06;9.30;70.30
4960;DHT22;2495;48.200;11.532;2023-01-09T09:30:08;9.40;69.80
4960;DHT22;2495;48.200;11.532;2023-01-09T09:35:09;9.20;69.00
4960;DHT22;2495;48.200;11.532;2023-01-09T09:45:39;9.00;67.40
4960;DHT22;2495;48.200;11.532;2023-01-09T09:50:55;9.00;67.60
4960;DHT22;2495;48.200;11.532;2023-01-09T09:56:10;9.10;67.40
4960;DHT22;2495;48.200;11.532;2023-01-09T10:01:11;9.00;67.30
4960;DHT22;2495;48.200;11.532;2023-01-09T10:06:20;9.00;67.10
4960;DHT22;2495;48.200;11.532;2023-01-09T10:11:21;8.90;67.50
4960;DHT22;2495;48.200;11.532;2023-01-09T10:26:57;9.10;67.80
4960;DHT22;2495;48.200;11.532;2023-01-09T10:32:06;9.20;66.50
4960;DHT22;2495;48.200;11.532;2023-01-09T10:37:17;9.30;66.70
4960;DHT22;2495;48.200;11.532;2023-01-09T10:42:27;9.20;66.70
4960;DHT22;2495;48.200;11.532;2023-01-09T10:47:28;9.30;66.70
4960;DHT22;2495;48.200;11.532;2023-01-09T10:52:31;9.50;66.00
4960;DHT22;2495;48.200;11.532;2023-01-09T10:57:44;9.40;65.50
4960;DHT22;2495;48.200;11.532;2023-01-09T11:02:54;9.40;65.60
4960;DHT22;2495;48.200;11.532;2023-01-09T11:08:10;9.40;64.90
4960;DHT22;2495;48.200;11.532;2023-01-09T11:13:12;9.40;65.30
4960;DHT22;2495;48.200;11.532;2023-01-09T11:18:21;9.40;65.10
4960;DHT22;2495;48.200;11.532;2023-01-09T11:23:28;9.40;64.40
4960;DHT22;2495;48.200;11.532;2023-01-09T11:28:28;9.40;64.40
4960;DHT22;2495;48.200;11.532;2023-01-09T11:33:36;9.50;63.30
4960;DHT22;2495;48.200;11.532;2023-01-09T11:38:56;9.50;63.40
4960;DHT22;2495;48.200;11.532;2023-01-09T11:43:57;9.50;63.20
4960;DHT22;2495;48.200;11.532;2023-01-09T11:48:59;9.70;63.00
4960;DHT22;2495;48.200;11.532;2023-01-09T11:59:17;10.00;61.60
4960;DHT22;2495;48.200;11.532;2023-01-09T12:04:24;10.00;61.30
4960;DHT22;2495;48.200;11.532;2023-01-09T12:14:44;10.40;60.20
4960;DHT22;2495;48.200;11.532;2023-01-09T12:25:34;10.20;59.90
4960;DHT22;2495;48.200;11.532;2023-01-09T12:42:20;9.80;60.30
4960;DHT22;2495;48.200;11.532;2023-01-09T12:47:51;9.80;60.40
4960;DHT22;2495;48.200;11.532;2023-01-09T12:58:33;10.50;60.70
4960;DHT22;2495;48.200;11.532;2023-01-09T13:03:37;10.40;59.50
4960;DHT22;2495;48.200;11.532;2023-01-09T13:14:29;10.40;61.00
4960;DHT22;2495;48.200;11.532;2023-01-09T13:19:47;10.70;60.30
4960;DHT22;2495;48.200;11.532;2023-01-09T13:25:16;10.70;59.40
4960;DHT22;2495;48.200;11.532;2023-01-09T13:30:19;10.60;59.50
4960;DHT22;2495;48.200;11.532;2023-01-09T13:35:19;10.30;59.20
4960;DHT22;2495;48.200;11.532;2023-01-09T13:45:26;10.00;59.70
4960;DHT22;2495;48.200;11.532;2023-01-09T13:50:26;9.90;60.30
4960;DHT22;2495;48.200;11.532;2023-01-09T13:55:28;9.90;60.50
4960;DHT22;2495;48.200;11.532;2023-01-09T14:10:51;9.90;60.30
4960;DHT22;2495;48.200;11.532;2023-01-09T14:15:52;9.90;60.40
4960;DHT22;2495;48.200;11.532;2023-01-09T14:26:00;9.80;60.40
4960;DHT22;2495;48.200;11.532;2023-01-09T14:31:03;9.80;60.40
4960;DHT22;2495;48.200;11.532;2023-01-09T14:36:18;9.80;60.60
4960;DHT22;2495;48.200;11.532;2023-01-09T14:41:26;9.80;61.00
4960;DHT22;2495;48.200;11.532;2023-01-09T14:46:45;9.70;61.00
4960;DHT22;2495;48.200;11.532;2023-01-09T14:51:46;9.90;62.00
4960;DHT22;2495;48.200;11.532;2023-01-09T14:56:49;10.20;60.40
4960;DHT22;2495;48.200;11.532;2023-01-09T15:01:53;10.20;59.70
4960;DHT22;2495;48.200;11.532;2023-01-09T15:06:55;10.00;59.80
4960;DHT22;2495;48.200;11.532;2023-01-09T15:11:57;9.80;60.20
4960;DHT22;2495;48.200;11.532;2023-01-09T15:16:58;10.10;61.00
4960;DHT22;2495;48.200;11.532;2023-01-09T15:22:04;10.00;60.80
4960;DHT22;2495;48.200;11.532;2023-01-09T15:27:09;9.90;62.20
4960;DHT22;2495;48.200;11.532;2023-01-09T15:32:17;9.70;62.80
4960;DHT22;2495;48.200;11.532;2023-01-09T15:42:38;9.40;63.80
4960;DHT22;2495;48.200;11.532;2023-01-09T15:53:19;9.30;64.90
4960;DHT22;2495;48.200;11.532;2023-01-09T15:58:26;9.30;64.80
4960;DHT22;2495;48.200;11.532;2023-01-09T16:03:36;9.30;64.80
4960;DHT22;2495;48.200;11.532;2023-01-09T16:08:38;9.30;64.70
4960;DHT22;2495;48.200;11.532;2023-01-09T16:13:41;9.20;65.00
4960;DHT22;2495;48.200;11.532;2023-01-09T16:18:49;9.20;65.50
4960;DHT22;2495;48.200;11.532;2023-01-09T16:23:53;9.20;65.80
4960;DHT22;2495;48.200;11.532;2023-01-09T16:29:24;9.10;66.00
4960;DHT22;2495;48.200;11.532;2023-01-09T16:33:59;9.10;65.90
4960;DHT22;2495;48.200;11.532;2023-01-09T16:38:59;9.00;66.30
4960;DHT22;2495;48.200;11.532;2023-01-09T16:44:01;8.90;66.60
4960;DHT22;2495;48.200;11.532;2023-01-09T16:49:02;8.90;67.50
4960;DHT22;2495;48.200;11.532;2023-01-09T16:54:03;8.80;67.80
4960;DHT22;2495;48.200;11.532;2023-01-09T16:59:04;8.70;68.20
4960;DHT22;2495;48.200;11.532;2023-01-09T17:04:12;8.70;68.40
4960;DHT22;2495;48.200;11.532;2023-01-09T17:09:14;8.60;69.20
4960;DHT22;2495;48.200;11.532;2023-01-09T17:14:14;8.60;68.50
4960;DHT22;2495;48.200;11.532;2023-01-09T17:19:16;8.60;68.80
4960;DHT22;2495;48.200;11.532;2023-01-09T17:24:17;8.60;68.90
4960;DHT22;2495;48.200;11.532;2023-01-09T17:29:37;8.60;68.90
4960;DHT22;2495;48.200;11.532;2023-01-09T17:34:38;8.50;69.10
4960;DHT22;2495;48.200;11.532;2023-01-09T17:39:41;8.50;69.40
4960;DHT22;2495;48.200;11.532;2023-01-09T17:44:45;8.50;69.40
4960;DHT22;2495;48.200;11.532;2023-01-09T17:49:57;8.40;69.30
4960;DHT22;2495;48.200;11.532;2023-01-09T17:55:31;8.30;69.80
4960;DHT22;2495;48.200;11.532;2023-01-09T18:00:41;8.30;69.80
4960;DHT22;2495;48.200;11.532;2023-01-09T18:05:42;8.10;69.90
4960;DHT22;2495;48.200;11.532;2023-01-09T18:10:43;8.00;70.00
4960;DHT22;2495;48.200;11.532;2023-01-09T18:15:45;8.00;70.30
4960;DHT22;2495;48.200;11.532;2023-01-09T18:20:46;8.00;70.30
4960;DHT22;2495;48.200;11.532;2023-01-09T18:25:47;7.90;70.20
4960;DHT22;2495;48.200;11.532;2023-01-09T18:30:49;7.80;70.30
4960;DHT22;2495;48.200;11.532;2023-01-09T18:35:50;7.80;70.50
4960;DHT22;2495;48.200;11.532;2023-01-09T18:40:56;7.70;70.70
4960;DHT22;2495;48.200;11.532;2023-01-09T18:45:53;7.60;70.80
4960;DHT22;2495;48.200;11.532;2023-01-09T18:51:05;7.90;71.40
4960;DHT22;2495;48.200;11.532;2023-01-09T18:56:05;7.90;70.80
4960;DHT22;2495;48.200;11.532;2023-01-09T19:01:07;7.90;70.40
4960;DHT22;2495;48.200;11.532;2023-01-09T19:06:12;7.90;70.50
4960;DHT22;2495;48.200;11.532;2023-01-09T19:11:13;7.90;71.20
4960;DHT22;2495;48.200;11.532;2023-01-09T19:16:15;8.00;71.10
4960;DHT22;2495;48.200;11.532;2023-01-09T19:21:17;8.20;71.20
4960;DHT22;2495;48.200;11.532;2023-01-09T19:26:19;8.30;70.20
4960;DHT22;2495;48.200;11.532;2023-01-09T19:31:19;8.50;70.90
4960;DHT22;2495;48.200;11.532;2023-01-09T19:36:21;8.70;70.70
4960;DHT22;2495;48.200;11.532;2023-01-09T19:41:22;8.60;69.50
4960;DHT22;2495;48.200;11.532;2023-01-09T19:46:27;8.30;70.30
4960;DHT22;2495;48.200;11.532;2023-01-09T19:51:29;7.90;71.40
4960;DHT22;2495;48.200;11.532;2023-01-09T19:56:31;7.70;71.50
4960;DHT22;2495;48.200;11.532;2023-01-09T20:01:33;7.70;71.50
4960;DHT22;2495;48.200;11.532;2023-01-09T20:06:38;7.50;72.10
4960;DHT22;2495;48.200;11.532;2023-01-09T20:11:39;7.30;72.50
4960;DHT22;2495;48.200;11.532;2023-01-09T20:16:40;7.30;72.90
4960;DHT22;2495;48.200;11.532;2023-01-09T20:21:41;7.10;74.00
4960;DHT22;2495;48.200;11.532;2023-01-09T20:26:49;6.90;74.40
4960;DHT22;2495;48.200;11.532;2023-01-09T20:31:54;7.30;75.90
4960;DHT22;2495;48.200;11.532;2023-01-09T20:37:11;7.50;73.10
4960;DHT22;2495;48.200;11.532;2023-01-09T20:42:13;7.40;73.50
4960;DHT22;2495;48.200;11.532;2023-01-09T20:47:14;7.50;72.80
4960;DHT22;2495;48.200;11.532;2023-01-09T20:52:34;7.70;73.40
4960;DHT22;2495;48.200;11.532;2023-01-09T20:57:52;7.60;73.10
4960;DHT22;2495;48.200;11.532;2023-01-09T21:02:57;7.40;73.60
4960;DHT22;2495;48.200;11.532;2023-01-09T21:08:06;7.30;73.70
4960;DHT22;2495;48.200;11.532;2023-01-09T21:13:15;7.10;75.00
4960;DHT22;2495;48.200;11.532;2023-01-09T21:30:23;6.90;77.00
4960;DHT22;2495;48.200;11.532;2023-01-09T21:35:25;7.00;76.00
4960;DHT22;2495;48.200;11.532;2023-01-09T21:40:26;7.00;76.20
4960;DHT22;2495;48.200;11.532;2023-01-09T21:45:31;7.00;76.00
4960;DHT22;2495;48.200;11.532;2023-01-09T21:50:51;6.80;76.90
4960;DHT22;2495;48.200;11.532;2023-01-09T21:55:56;6.80;77.30
4960;DHT22;2495;48.200;11.532;2023-01-09T22:00:57;6.90;77.50
4960;DHT22;2495;48.200;11.532;2023-01-09T22:11:56;6.90;78.40
4960;DHT22;2495;48.200;11.532;2023-01-09T22:17:30;7.10;79.30
4960;DHT22;2495;48.200;11.532;2023-01-09T22:22:31;7.50;78.10
4960;DHT22;2495;48.200;11.532;2023-01-09T22:27:35;7.60;77.00
4960;DHT22;2495;48.200;11.532;2023-01-09T22:32:37;7.60;77.90
4960;DHT22;2495;48.200;11.532;2023-01-09T22:37:38;7.80;77.20
4960;DHT22;2495;48.200;11.532;2023-01-09T22:42:40;7.90;77.00
4960;DHT22;2495;48.200;11.532;2023-01-09T22:47:41;7.80;76.10
4960;DHT22;2495;48.200;11.532;2023-01-09T22:52:42;7.80;76.90
4960;DHT22;2495;48.200;11.532;2023-01-09T22:57:44;7.70;76.10
4960;DHT22;2495;48.200;11.532;2023-01-09T23:02:45;7.70;77.00
4960;DHT22;2495;48.200;11.532;2023-01-09T23:07:46;7.60;76.50
4960;DHT22;2495;48.200;11.532;2023-01-09T23:12:47;7.70;77.80
4960;DHT22;2495;48.200;11.532;2023-01-09T23:17:50;8.00;76.80
4960;DHT22;2495;48.200;11.532;2023-01-09T23:22:51;7.80;75.90
4960;DHT22;2495;48.200;11.532;2023-01-09T23:27:56;7.70;76.10
4960;DHT22;2495;48.200;11.532;2023-01-09T23:33:07;7.50;76.90
4960;DHT22;2495;48.200;11.532;2023-01-09T23:38:18;7.40;77.10
4960;DHT22;2495;48.200;11.532;2023-01-09T23:50:08;7.20;78.20
4960;DHT22;2495;48.200;11.532;2023-01-09T23:55:23;7.10;79.70
